Time;durP1;ratioP1;P1;durP2;ratioP2;P2;SDS_P1;SDS_P2;PMS_P1;PMS_P2;Temp;Humidity;BMP_temperature;BMP_pressure;BME280_temperature;BME280_humidity;BME280_pressure;Samples;Min_cycle;Max_cycle;Signal;HPM_P1;HPM_P2
2022/06/27 00:47:47;;;;;;;7.07;3.63;;;20.00;99.90;;;17.52;100.00;100455.81;3372846;22;20060;-83
2022/06/27 00:50:14;;;;;;;8.90;3.63;;;20.00;99.90;;;17.53;100.00;100451.97;5049223;28;20087;-83
2022/06/27 00:52:43;;;;;;;6.43;3.35;;;20.00;99.90;;;17.51;100.00;100445.88;5057096;28;20562;-83
2022/06/27 00:55:11;;;;;;;7.20;3.72;;;20.00;99.90;;;17.52;100.00;100438.47;5047512;28;20049;-83
2022/06/27 00:57:39;;;;;;;8.15;3.72;;;20.00;99.90;;;17.54;100.00;100442.66;5036405;28;20050;-83
2022/06/27 01:00:09;;;;;;;8.05;4.15;;;20.00;99.90;;;17.55;100.00;100443.50;5034766;28;20042;-83
2022/06/27 01:02:37;;;;;;;6.70;3.45;;;20.00;99.90;;;17.59;100.00;100434.56;5023410;28;20046;-83
2022/06/27 01:05:07;;;;;;;4.78;2.92;;;20.00;99.90;;;17.55;100.00;100433.34;5026899;28;20073;-83
2022/06/27 01:07:36;;;;;;;7.43;3.40;;;20.00;99.90;;;17.50;100.00;100441.44;5028556;28;20055;-83
2022/06/27 01:10:04;;;;;;;6.25;3.63;;;20.00;99.90;;;17.46;100.00;100442.13;5028173;28;20052;-83
2022/06/27 01:12:32;;;;;;;6.13;3.35;;;20.00;99.90;;;17.41;100.00;100437.34;5039469;28;20044;-83
2022/06/27 01:15:01;;;;;;;7.70;3.45;;;19.90;99.90;;;17.39;100.00;100433.97;5044272;28;20061;-83
2022/06/27 01:17:29;;;;;;;6.10;3.25;;;19.90;99.90;;;17.34;100.00;100431.06;5028630;28;20550;-83
2022/06/27 01:19:56;;;;;;;5.13;3.45;;;19.90;99.90;;;17.33;100.00;100432.16;5028199;28;20033;-83
2022/06/27 01:22:25;;;;;;;5.35;3.50;;;19.90;99.90;;;17.31;100.00;100432.38;5041758;28;20140;-83
2022/06/27 01:24:52;;;;;;;9.55;3.88;;;19.90;99.90;;;17.30;100.00;100432.59;5041798;28;20463;-84
2022/06/27 01:27:19;;;;;;;11.95;3.58;;;19.90;99.90;;;17.29;100.00;100426.28;5046542;28;20048;-83
2022/06/27 01:29:47;;;;;;;5.43;3.58;;;19.90;99.90;;;17.27;100.00;100419.31;5028557;28;20561;-83
2022/06/27 01:32:14;;;;;;;4.75;3.33;;;19.80;99.90;;;17.23;100.00;100423.59;5029399;28;20049;-83
2022/06/27 01:34:41;;;;;;;5.38;3.10;;;19.90;99.90;;;17.22;100.00;100427.44;5034493;28;20050;-83
2022/06/27 01:37:09;;;;;;;6.85;4.05;;;19.80;99.90;;;17.24;100.00;100430.78;5020562;28;20054;-83
2022/06/27 01:39:43;;;;;;;5.55;3.50;;;19.80;99.90;;;17.25;100.00;100438.81;5037138;28;20048;-83
2022/06/27 01:42:10;;;;;;;5.57;3.53;;;19.80;99.90;;;17.29;100.00;100439.19;5041189;28;20141;-83
2022/06/27 01:44:37;;;;;;;7.75;3.55;;;19.80;99.90;;;17.29;100.00;100436.44;5024480;28;20081;-83
2022/06/27 01:47:08;;;;;;;5.85;3.15;;;19.80;99.90;;;17.26;100.00;100421.22;5027919;28;20037;-83
2022/06/27 01:49:39;;;;;;;6.30;3.50;;;19.80;99.90;;;17.31;100.00;100417.81;5026581;28;20054;-83
2022/06/27 01:52:09;;;;;;;6.97;3.30;;;19.80;99.90;;;17.29;100.00;100417.19;5027439;28;20425;-83
2022/06/27 01:54:37;;;;;;;6.38;3.50;;;19.80;99.90;;;17.30;100.00;100419.69;5022833;28;20038;-83
2022/06/27 01:57:07;;;;;;;7.68;4.10;;;19.80;99.90;;;17.31;100.00;100421.38;5043719;28;20459;-83
2022/06/27 01:59:36;;;;;;;;;;;19.80;99.90;;;17.32;100.00;100427.72;5027859;28;21887;-84
2022/06/27 02:02:07;;;;;;;9.32;3.75;;;19.80;99.90;;;17.36;100.00;100423.44;5043220;28;19925;-83
2022/06/27 02:04:37;;;;;;;6.18;3.90;;;19.80;99.90;;;17.38;100.00;100426.78;5038516;28;20049;-83
2022/06/27 02:07:05;;;;;;;6.60;3.55;;;19.80;99.90;;;17.38;100.00;100424.03;5022447;28;20055;-83
2022/06/27 02:09:33;;;;;;;5.93;3.90;;;19.80;99.90;;;17.33;100.00;100408.22;5038111;28;20135;-83
2022/06/27 02:12:18;;;;;;;6.90;4.47;;;19.80;99.90;;;17.39;100.00;100400.97;5043058;28;20123;-83
2022/06/27 02:14:49;;;;;;;7.50;4.30;;;19.80;99.90;;;17.45;100.00;100404.69;5021132;28;20057;-83
2022/06/27 02:17:17;;;;;;;7.35;4.18;;;19.80;99.90;;;17.43;100.00;100390.34;5043475;28;20053;-84
2022/06/27 02:19:45;;;;;;;8.70;4.68;;;19.80;99.90;;;17.45;100.00;100377.19;5044038;28;20049;-83
2022/06/27 02:22:14;;;;;;;9.27;4.90;;;19.80;99.90;;;17.47;100.00;100370.38;5029076;28;20136;-83
2022/06/27 02:24:42;;;;;;;14.27;5.07;;;19.80;99.90;;;17.49;100.00;100364.63;5023006;28;20054;-84
2022/06/27 02:27:11;;;;;;;6.70;4.10;;;19.80;99.90;;;17.47;100.00;100364.88;5026466;28;20047;-83
2022/06/27 02:29:39;;;;;;;8.20;4.40;;;19.80;99.90;;;17.47;100.00;100369.53;5017940;28;20065;-83
2022/06/27 02:32:09;;;;;;;8.73;5.38;;;19.80;99.90;;;17.56;100.00;100377.22;5027888;28;20049;-83
2022/06/27 02:34:38;;;;;;;9.85;5.47;;;19.80;99.90;;;17.61;100.00;100370.16;5019924;28;20137;-83
2022/06/27 02:37:07;;;;;;;8.95;5.18;;;19.80;99.90;;;17.58;100.00;100364.06;5019428;28;20049;-83
2022/06/27 02:39:38;;;;;;;8.63;5.20;;;19.80;99.90;;;17.65;100.00;100365.88;5037949;28;20099;-84
2022/06/27 02:42:08;;;;;;;;;;;19.90;99.90;;;17.63;100.00;100355.13;5028816;28;20558;-83
2022/06/27 02:44:35;;;;;;;9.00;5.30;;;19.90;99.90;;;17.65;100.00;100363.13;5027490;28;19924;-84
2022/06/27 02:47:03;;;;;;;10.65;5.60;;;19.90;99.90;;;17.67;100.00;100366.47;5028357;28;20577;-83
2022/06/27 02:49:32;;;;;;;9.57;5.45;;;19.90;99.90;;;17.68;100.00;100369.00;5019095;28;20045;-83
2022/06/27 02:52:07;;;;;;;8.30;4.68;;;19.90;99.90;;;17.68;100.00;100365.41;5027195;28;20041;-83
2022/06/27 02:54:50;;;;;;;9.88;5.80;;;19.90;99.90;;;17.67;100.00;100358.22;5039710;28;20504;-83
2022/06/27 02:57:35;;;;;;;9.23;6.13;;;19.90;99.90;;;17.68;100.00;100346.16;5025310;28;20088;-84
2022/06/27 03:00:09;;;;;;;9.88;6.10;;;19.90;99.90;;;17.67;100.00;100341.69;5024130;28;20445;-84
2022/06/27 03:02:39;;;;;;;10.70;7.32;;;19.90;99.90;;;17.69;100.00;100347.84;5038851;28;20408;-83
2022/06/27 03:05:29;;;;;;;13.93;7.40;;;19.90;99.90;;;17.73;100.00;100344.38;5043926;28;20077;-84
2022/06/27 03:07:56;;;;;;;13.98;7.80;;;19.90;99.90;;;17.72;100.00;100334.41;5027120;28;20140;-84
2022/06/27 03:10:24;;;;;;;12.38;8.20;;;19.90;99.90;;;17.78;100.00;100329.88;5021215;28;20049;-84
2022/06/27 03:12:51;;;;;;;11.57;8.18;;;19.90;99.90;;;17.79;100.00;100323.31;5027520;28;20327;-83
2022/06/27 03:15:18;;;;;;;12.38;7.93;;;20.00;99.90;;;17.78;100.00;100318.88;5027424;28;20128;-83
2022/06/27 03:17:47;;;;;;;13.07;7.60;;;20.00;99.90;;;17.76;100.00;100329.28;5022443;28;20073;-83
2022/06/27 03:20:42;;;;;;;13.00;8.00;;;20.00;99.90;;;17.75;100.00;100331.19;5005708;28;20412;-84
2022/06/27 03:23:17;;;;;;;11.32;8.43;;;20.00;99.90;;;17.77;100.00;100336.47;5027385;28;20095;-84
2022/06/27 03:25:58;;;;;;;14.70;8.55;;;20.00;99.90;;;17.81;100.00;100321.16;5044635;28;20050;-84
2022/06/27 03:28:31;;;;;;;13.13;8.57;;;20.00;99.90;;;17.80;100.00;100325.00;5020354;28;20126;-84
2022/06/27 03:31:01;;;;;;;12.60;9.38;;;20.00;99.90;;;17.78;100.00;100327.13;5043678;28;20045;-83
2022/06/27 03:33:31;;;;;;;14.13;8.90;;;20.00;99.90;;;17.79;100.00;100331.56;5022129;28;20049;-84
2022/06/27 03:36:07;;;;;;;15.80;9.23;;;20.00;99.90;;;17.79;100.00;100323.31;5039843;28;20096;-84
2022/06/27 03:38:35;;;;;;;15.73;9.10;;;20.00;99.90;;;17.78;100.00;100333.50;5025351;28;20550;-84
2022/06/27 03:41:02;;;;;;;15.02;9.98;;;20.00;99.90;;;17.83;100.00;100352.03;5023877;28;20425;-84
2022/06/27 03:43:30;;;;;;;13.73;8.85;;;20.00;99.90;;;17.83;100.00;100362.22;5036142;28;20045;-84
2022/06/27 03:45:58;;;;;;;16.17;10.00;;;20.00;99.90;;;17.83;100.00;100360.28;5035198;28;20041;-84
2022/06/27 03:51:25;;;;;;;12.80;9.00;;;20.00;99.90;;;17.83;100.00;100354.78;5043692;28;20041;-82
2022/06/27 03:53:52;;;;;;;13.40;9.07;;;20.00;99.90;;;17.83;100.00;100363.03;5018565;28;20064;-83
2022/06/27 03:56:20;;;;;;;14.60;8.82;;;20.00;99.90;;;17.83;100.00;100370.47;5033228;28;20476;-82
2022/06/27 03:58:48;;;;;;;15.73;9.35;;;20.00;99.90;;;17.83;100.00;100364.97;5016781;28;20045;-83
2022/06/27 04:01:15;;;;;;;14.30;9.43;;;20.00;99.90;;;17.81;100.00;100364.38;5027281;28;20103;-83
2022/06/27 04:03:43;;;;;;;14.88;9.25;;;20.00;99.90;;;17.79;100.00;100368.19;5026476;28;20092;-83
2022/06/27 04:06:14;;;;;;;13.65;8.68;;;20.00;99.90;;;17.83;100.00;100364.97;5026691;28;20419;-83
2022/06/27 04:08:43;;;;;;;12.32;8.73;;;20.00;99.90;;;17.81;100.00;100369.88;5040402;28;20128;-83
2022/06/27 04:11:11;;;;;;;13.38;9.60;;;20.00;99.90;;;17.79;100.00;100378.38;5018568;28;20386;-83
2022/06/27 04:13:42;;;;;;;11.30;8.40;;;20.00;99.90;;;17.82;100.00;100383.41;5027564;28;20053;-83
2022/06/27 04:16:44;;;;;;;12.57;8.43;;;20.00;99.90;;;17.79;100.00;100381.13;5020493;28;20068;-83
2022/06/27 04:19:17;;;;;;;14.38;8.02;;;20.00;99.90;;;17.81;100.00;100370.72;5027605;28;20133;-83
2022/06/27 04:22:04;;;;;;;13.57;8.95;;;20.00;99.90;;;17.83;100.00;100376.81;5032747;28;20180;-82
2022/06/27 04:25:06;;;;;;;12.90;8.95;;;20.00;99.90;;;17.85;100.00;100382.13;4987354;28;20050;-83
2022/06/27 04:27:46;;;;;;;11.90;9.00;;;20.00;99.90;;;17.78;100.00;100384.94;5044741;28;20076;-83
2022/06/27 04:30:17;;;;;;;15.18;9.27;;;20.00;99.90;;;17.74;100.00;100380.97;5021809;28;20044;-83
2022/06/27 04:32:45;;;;;;;13.35;8.65;;;20.00;99.90;;;17.76;100.00;100378.81;5040438;28;20046;-83
2022/06/27 04:35:13;;;;;;;12.82;8.50;;;20.00;99.90;;;17.71;100.00;100382.28;5045508;28;20053;-82
2022/06/27 04:37:43;;;;;;;13.07;9.30;;;20.00;99.90;;;17.71;100.00;100392.47;5021672;28;20471;-83
2022/06/27 04:40:31;;;;;;;14.38;9.38;;;20.00;99.90;;;17.68;100.00;100395.69;5035849;28;20050;-83
2022/06/27 04:43:01;;;;;;;12.60;10.60;;;20.00;99.90;;;17.68;100.00;100385.50;5031518;28;20700;-82
2022/06/27 04:45:28;;;;;;;17.02;9.88;;;20.00;99.90;;;17.63;100.00;100384.53;5026248;28;20166;-82
2022/06/27 04:48:07;;;;;;;13.20;9.10;;;20.00;99.90;;;17.57;100.00;100378.91;5041660;28;20041;-82
2022/06/27 04:50:36;;;;;;;13.85;9.18;;;19.90;99.90;;;17.58;100.00;100377.81;5028811;28;20081;-82
2022/06/27 04:53:05;;;;;;;15.88;10.45;;;19.90;99.90;;;17.57;100.00;100358.78;5028373;28;20048;-82
2022/06/27 04:55:33;;;;;;;15.20;9.38;;;19.90;99.90;;;17.56;100.00;100357.13;5030001;28;20740;-82
2022/06/27 04:58:01;;;;;;;15.18;10.27;;;19.90;99.90;;;17.61;100.00;100353.66;5037868;28;20061;-84
2022/06/27 05:00:28;;;;;;;13.80;9.82;;;19.90;99.90;;;17.63;100.00;100343.25;5025180;28;20049;-79
2022/06/27 05:03:15;;;;;;;13.10;10.10;;;19.90;99.90;;;17.68;100.00;100351.66;5027917;28;20048;-77
2022/06/27 05:05:50;;;;;;;13.57;9.50;;;19.90;99.90;;;17.66;100.00;100349.13;5045693;28;20053;-77
2022/06/27 05:08:17;;;;;;;13.32;9.77;;;19.90;99.90;;;17.69;100.00;100345.09;5034524;28;20055;-77
2022/06/27 05:10:48;;;;;;;13.73;10.75;;;19.90;99.90;;;17.68;100.00;100348.91;5045810;28;20053;-77
2022/06/27 05:13:15;;;;;;;14.05;10.27;;;19.90;99.90;;;17.69;100.00;100345.09;5027320;28;20095;-77
2022/06/27 05:15:42;;;;;;;16.67;10.35;;;19.90;99.90;;;17.63;100.00;100340.50;5041200;28;20434;-77
2022/06/27 05:18:10;;;;;;;13.65;10.10;;;19.90;99.90;;;17.65;100.00;100314.44;5029046;28;20545;-77
2022/06/27 05:20:37;;;;;;;15.75;11.15;;;19.90;99.90;;;17.62;100.00;100272.78;5029331;28;20132;-79
2022/06/27 05:23:04;;;;;;;13.30;10.43;;;19.90;99.90;;;17.62;100.00;100289.31;5025886;28;20045;-80
2022/06/27 05:25:32;;;;;;;13.95;10.45;;;19.90;99.90;;;17.63;100.00;100315.72;5026553;28;20034;-79
2022/06/27 05:28:02;;;;;;;16.15;11.13;;;19.90;99.90;;;17.61;100.00;100307.72;5019659;28;20140;-79
2022/06/27 05:30:30;;;;;;;17.05;11.38;;;19.90;99.90;;;17.64;100.00;100307.25;5040310;28;20067;-79
2022/06/27 05:32:58;;;;;;;14.23;10.93;;;19.90;99.90;;;17.70;100.00;100308.22;5030942;28;20041;-79
2022/06/27 05:35:26;;;;;;;18.35;11.48;;;19.90;99.90;;;17.71;100.00;100320.91;5046133;28;20049;-82
2022/06/27 05:37:54;;;;;;;15.07;10.32;;;19.90;99.90;;;17.78;100.00;100305.09;5025583;28;20112;-82
2022/06/27 05:40:21;;;;;;;15.02;11.07;;;19.90;99.90;;;17.76;100.00;100291.59;5028980;28;20041;-79
2022/06/27 05:42:49;;;;;;;15.18;10.60;;;20.00;99.90;;;17.81;100.00;100284.53;5028619;28;20116;-81
2022/06/27 05:45:18;;;;;;;18.02;12.02;;;20.00;99.90;;;17.87;100.00;100289.13;5023365;28;20048;-81
2022/06/27 05:48:06;;;;;;;13.88;11.50;;;20.00;99.90;;;17.95;100.00;100284.09;5023445;28;20053;-81
2022/06/27 05:50:39;;;;;;;14.70;11.18;;;20.00;99.90;;;17.88;100.00;100274.28;5041934;28;21576;-82
2022/06/27 05:53:06;;;;;;;14.70;11.27;;;20.00;99.90;;;17.84;100.00;100276.69;5023178;28;20756;-80
2022/06/27 05:55:35;;;;;;;16.48;10.80;;;20.00;99.90;;;17.85;100.00;100286.59;5020478;28;20104;-80
2022/06/27 05:58:03;;;;;;;13.50;10.00;;;20.00;99.90;;;17.82;100.00;100295.31;5018724;28;20144;-81
2022/06/27 06:00:32;;;;;;;14.25;10.13;;;20.00;99.90;;;17.84;100.00;100298.69;5022133;28;20419;-81
2022/06/27 06:03:00;;;;;;;13.65;10.48;;;20.00;99.90;;;17.84;100.00;100304.22;5020286;28;20046;-81
2022/06/27 06:05:28;;;;;;;15.18;11.00;;;20.00;99.90;;;17.85;100.00;100321.56;5029059;28;20077;-82
2022/06/27 06:08:02;;;;;;;15.40;10.27;;;20.00;99.90;;;17.81;100.00;100337.66;5041828;28;20041;-83
2022/06/27 06:10:30;;;;;;;12.00;9.90;;;20.00;99.90;;;17.81;100.00;100353.34;5032233;28;20045;-81
2022/06/27 06:12:58;;;;;;;11.43;9.77;;;20.00;99.90;;;17.77;100.00;100359.31;5025397;28;20049;-82
2022/06/27 06:15:25;;;;;;;12.30;9.88;;;20.00;99.90;;;17.75;100.00;100368.91;5044712;28;20037;-81
2022/06/27 06:17:54;;;;;;;16.73;9.35;;;20.00;99.90;;;17.73;100.00;100368.31;5036056;28;20050;-81
2022/06/27 06:20:22;;;;;;;13.93;9.30;;;20.00;99.90;;;17.72;100.00;100328.06;5025233;28;20038;-81
2022/06/27 06:22:49;;;;;;;12.45;9.70;;;20.00;99.90;;;17.81;100.00;100298.31;5044786;28;20046;-80
2022/06/27 06:25:16;;;;;;;12.23;9.70;;;20.00;99.90;;;17.85;100.00;100330.66;5028778;28;20149;-81
2022/06/27 06:27:44;;;;;;;13.40;10.20;;;20.00;99.90;;;17.91;100.00;100368.22;5037350;28;20052;-81
2022/06/27 06:30:13;;;;;;;14.48;9.82;;;20.00;99.90;;;17.93;100.00;100385.38;5034564;28;20055;-81
2022/06/27 06:32:44;;;;;;;12.05;9.20;;;20.00;99.90;;;18.00;100.00;100400.94;5042275;28;20068;-81
2022/06/27 06:35:13;;;;;;;15.50;10.48;;;20.00;99.90;;;18.04;100.00;100407.66;5044427;28;20061;-81
2022/06/27 06:37:41;;;;;;;14.05;9.35;;;20.00;99.90;;;18.05;100.00;100396.41;5028855;28;20069;-81
2022/06/27 06:40:11;;;;;;;16.35;9.68;;;20.00;99.90;;;18.10;100.00;100404.78;5037272;28;20068;-81
2022/06/27 06:42:39;;;;;;;13.90;9.43;;;20.10;99.90;;;18.18;100.00;100414.63;5045022;28;20050;-81
2022/06/27 06:45:22;;;;;;;14.68;9.25;;;20.10;99.90;;;18.26;100.00;100422.53;5045145;28;20590;-81
2022/06/27 06:48:03;;;;;;;13.07;9.55;;;20.10;99.90;;;18.29;100.00;100416.53;5048991;22;20052;-81
2022/06/27 06:50:33;;;;;;;13.73;9.80;;;20.10;99.90;;;18.36;100.00;100425.53;5040222;28;20045;-81
2022/06/27 06:53:01;;;;;;;12.35;9.65;;;20.10;99.90;;;18.39;100.00;100432.50;5046330;28;20037;-82
2022/06/27 06:55:29;;;;;;;13.45;9.05;;;20.20;99.90;;;18.42;100.00;100433.94;5048216;28;20041;-82
2022/06/27 06:57:56;;;;;;;14.70;9.50;;;20.20;99.90;;;18.49;100.00;100443.78;5033097;28;20243;-82
2022/06/27 07:00:24;;;;;;;11.68;9.23;;;20.20;99.90;;;18.50;100.00;100439.91;5021431;28;20406;-82
2022/06/27 07:02:52;;;;;;;13.25;9.35;;;20.20;99.90;;;18.50;100.00;100447.34;5028645;28;20044;-83
2022/06/27 07:05:20;;;;;;;13.30;9.48;;;20.20;99.90;;;18.51;100.00;100451.81;5020607;28;20778;-89
2022/06/27 07:07:51;;;;;;;14.68;9.50;;;20.20;99.90;;;18.52;100.00;100436.94;5027105;28;20049;-85
2022/06/27 07:10:18;;;;;;;12.40;8.88;;;20.30;99.90;;;18.52;100.00;100425.91;5024212;28;20581;-85
2022/06/27 07:12:46;;;;;;;14.27;8.70;;;20.30;99.90;;;18.52;100.00;100406.59;5027428;28;20049;-86
2022/06/27 07:15:14;;;;;;;13.40;9.07;;;20.30;99.90;;;18.53;100.00;100400.03;5020264;28;20484;-84
2022/06/27 07:17:44;;;;;;;15.00;9.63;;;20.30;99.90;;;18.51;100.00;100404.94;5027404;28;20115;-85
2022/06/27 07:20:14;;;;;;;13.67;9.67;;;20.30;99.90;;;18.48;100.00;100413.69;5028321;28;20045;-85
2022/06/27 07:22:42;;;;;;;14.07;8.95;;;20.30;99.90;;;18.46;100.00;100427.69;5021973;28;20041;-85
2022/06/27 07:25:11;;;;;;;10.75;9.10;;;20.30;99.90;;;18.41;100.00;100427.59;5027330;28;20132;-85
2022/06/27 07:27:39;;;;;;;14.00;9.70;;;20.30;99.90;;;18.40;100.00;100441.59;5019931;28;20499;-86
2022/06/27 07:30:10;;;;;;;13.75;9.15;;;20.30;99.90;;;18.39;100.00;100431.66;5027372;28;20061;-85
2022/06/27 07:32:39;;;;;;;13.05;8.45;;;20.30;99.90;;;18.33;100.00;100434.31;5028398;28;20052;-85
2022/06/27 07:35:09;;;;;;;12.07;8.60;;;20.30;99.90;;;18.32;100.00;100438.13;5020141;28;20042;-85
2022/06/27 07:37:38;;;;;;;13.30;8.35;;;20.30;99.90;;;18.31;100.00;100430.91;5027514;28;20050;-84
2022/06/27 07:40:07;;;;;;;10.98;8.52;;;20.30;99.90;;;18.26;100.00;100419.78;5018832;28;20048;-83
2022/06/27 07:42:37;;;;;;;11.40;7.78;;;20.30;99.90;;;18.27;100.00;100429.72;5028577;28;20069;-83
2022/06/27 07:45:07;;;;;;;11.32;7.47;;;20.30;99.90;;;18.30;100.00;100432.00;5020019;28;20048;-83
2022/06/27 07:47:35;;;;;;;10.17;7.97;;;20.30;99.90;;;18.31;100.00;100425.41;5020848;28;20061;-83
2022/06/27 07:50:02;;;;;;;9.07;7.35;;;20.30;99.90;;;18.30;100.00;100418.22;5028243;28;20044;-83
2022/06/27 07:53:11;;;;;;;10.10;7.80;;;20.30;99.90;;;18.34;100.00;100422.19;5022969;28;20132;-83
2022/06/27 07:55:17;;;;;;;13.40;8.98;;;20.30;99.90;;;18.42;100.00;100415.47;5022813;28;20508;-83
2022/06/27 07:57:47;;;;;;;17.67;9.18;;;20.30;99.90;;;18.39;100.00;100418.72;5031672;28;20042;-83
2022/06/27 08:00:15;;;;;;;14.10;9.30;;;20.30;99.90;;;18.39;100.00;100417.88;5025702;28;20593;-83
2022/06/27 08:02:43;;;;;;;13.45;9.48;;;20.30;99.90;;;18.45;100.00;100414.16;5031146;28;20042;-83
2022/06/27 08:05:10;;;;;;;13.80;10.30;;;20.30;99.90;;;18.48;100.00;100408.16;5025343;28;20048;-83
2022/06/27 08:07:38;;;;;;;13.95;9.52;;;20.30;99.90;;;18.45;100.00;100403.13;5029039;28;20068;-83
2022/06/27 08:10:06;;;;;;;14.77;9.02;;;20.30;99.90;;;18.49;100.00;100404.34;5031250;28;20046;-83
2022/06/27 08:12:34;;;;;;;14.02;9.35;;;20.30;99.90;;;18.56;100.00;100411.41;5029694;28;20045;-83
2022/06/27 08:15:03;;;;;;;12.35;9.27;;;20.40;99.90;;;18.59;100.00;100423.03;5022798;28;20096;-83
2022/06/27 08:17:31;;;;;;;14.05;9.98;;;20.30;99.90;;;18.58;100.00;100435.97;5031377;28;20403;-83
2022/06/27 08:19:59;;;;;;;19.13;10.32;;;20.40;99.90;;;18.55;100.00;100441.97;5032281;28;20045;-83
2022/06/27 08:22:30;;;;;;;14.35;9.85;;;20.40;99.90;;;18.51;100.00;100454.56;5022128;28;20522;-83
2022/06/27 08:24:57;;;;;;;13.13;9.57;;;20.40;99.90;;;18.48;100.00;100463.28;5030912;28;20055;-83
2022/06/27 08:27:26;;;;;;;11.85;8.95;;;20.30;99.90;;;18.46;100.00;100470.97;5028144;28;20077;-85
2022/06/27 08:29:53;;;;;;;15.85;10.77;;;20.30;99.90;;;18.44;100.00;100473.13;5026813;28;20037;-80
2022/06/27 08:32:21;;;;;;;19.25;10.32;;;20.30;99.90;;;18.41;100.00;100473.59;5024318;28;20737;-83
2022/06/27 08:34:54;;;;;;;13.00;9.90;;;20.30;99.90;;;18.42;100.00;100469.75;5022185;28;20140;-83
2022/06/27 08:37:23;;;;;;;13.52;9.63;;;20.40;99.90;;;18.43;100.00;100471.44;5031997;28;20047;-83
2022/06/27 08:39:50;;;;;;;14.43;9.07;;;20.30;99.90;;;18.47;100.00;100480.91;5020514;28;20427;-82
2022/06/27 08:42:17;;;;;;;11.73;9.00;;;20.30;99.90;;;18.56;100.00;100476.72;5021756;28;20060;-84
2022/06/27 08:44:45;;;;;;;13.35;8.27;;;20.40;99.90;;;18.64;100.00;100490.16;5023410;28;20055;-84
2022/06/27 08:47:14;;;;;;;14.82;9.85;;;20.40;99.90;;;18.69;100.00;100506.81;5026399;28;20080;-82
2022/06/27 08:49:46;;;;;;;16.90;10.35;;;20.40;99.90;;;18.66;100.00;100518.31;5031083;28;20080;-83
2022/06/27 08:52:13;;;;;;;11.63;8.40;;;20.40;99.90;;;18.64;100.00;100514.97;5026100;28;20042;-81
2022/06/27 08:54:40;;;;;;;13.32;9.15;;;20.40;99.90;;;18.65;100.00;100524.06;5028729;28;20404;-82
2022/06/27 08:57:08;;;;;;;11.77;8.18;;;20.50;99.90;;;18.63;100.00;100526.22;5026098;28;20132;-81
2022/06/27 08:59:36;;;;;;;12.93;8.52;;;20.40;99.90;;;18.60;100.00;100526.69;5029227;28;20049;-83
2022/06/27 09:02:06;;;;;;;12.65;8.90;;;20.50;99.90;;;18.58;100.00;100517.81;5033201;28;20052;-82
2022/06/27 09:04:58;;;;;;;11.02;8.10;;;20.50;99.90;;;18.57;100.00;100530.78;5026992;28;20037;-80
2022/06/27 09:07:51;;;;;;;11.48;8.80;;;20.50;99.90;;;18.55;100.00;100524.66;5030053;28;20049;-79
2022/06/27 09:10:32;;;;;;;12.07;8.38;;;20.50;99.90;;;18.54;100.00;100550.53;5029064;28;20041;-81
2022/06/27 09:13:02;;;;;;;;;;;20.40;99.90;;;18.51;100.00;100537.25;5023539;28;20041;-82
2022/06/27 09:15:45;;;;;;;11.57;8.63;;;20.40;99.90;;;18.48;100.00;100530.25;5028939;28;19925;-82
2022/06/27 09:18:15;;;;;;;12.73;9.50;;;20.50;99.90;;;18.49;100.00;100525.63;5027686;28;20049;-82
2022/06/27 09:20:55;;;;;;;14.82;10.35;;;20.50;99.90;;;18.53;100.00;100516.63;5022470;28;20041;-81
2022/06/27 09:23:40;;;;;;;14.95;9.63;;;20.50;99.90;;;18.59;100.00;100511.25;5020001;28;20116;-80
2022/06/27 09:26:19;;;;;;;13.98;10.60;;;20.50;99.90;;;18.62;100.00;100516.25;5020141;28;20054;-79
2022/06/27 09:28:54;;;;;;;15.45;10.88;;;20.50;99.90;;;18.72;100.00;100520.13;5029300;28;20057;-86
2022/06/27 09:31:42;;;;;;;13.25;10.68;;;20.50;99.90;;;18.84;100.00;100533.09;5026681;28;20038;-85
2022/06/27 09:34:16;;;;;;;13.80;11.27;;;20.50;99.90;;;18.91;100.00;100525.56;5025784;28;20434;-85
2022/06/27 09:36:49;;;;;;;12.88;10.80;;;20.60;99.90;;;18.96;100.00;100520.16;5030132;28;20499;-86
2022/06/27 09:39:22;;;;;;;16.70;11.32;;;20.60;99.90;;;18.95;100.00;100519.31;5011212;28;20038;-90
2022/06/27 09:41:56;;;;;;;16.52;12.68;;;20.60;99.90;;;18.98;100.00;100517.97;5018247;28;20049;-85
2022/06/27 09:44:28;;;;;;;18.08;11.50;;;20.60;99.90;;;18.97;100.00;100524.59;5024367;28;20037;-87
2022/06/27 09:47:04;;;;;;;17.73;13.63;;;20.60;99.90;;;18.97;100.00;100527.34;5027882;28;20120;-89
2022/06/27 09:49:35;;;;;;;17.83;14.30;;;20.70;99.90;;;19.00;100.00;100518.63;5030329;28;20087;-89
2022/06/27 09:52:08;;;;;;;19.63;14.52;;;20.70;99.90;;;19.01;100.00;100517.50;5030651;28;20045;-89
2022/06/27 09:54:39;;;;;;;23.20;15.85;;;20.70;99.90;;;19.04;100.00;100511.53;5030163;28;20132;-88
2022/06/27 09:57:07;;;;;;;23.67;17.48;;;20.70;99.90;;;19.04;100.00;100505.16;5030532;28;20045;-89
2022/06/27 09:59:36;;;;;;;22.80;17.80;;;20.70;99.90;;;19.02;100.00;100497.16;5028773;28;20056;-89
2022/06/27 10:02:05;;;;;;;21.77;16.80;;;20.70;99.90;;;19.06;100.00;100503.84;5030926;28;20041;-88
2022/06/27 10:04:35;;;;;;;21.35;17.90;;;20.70;99.90;;;19.08;100.00;100507.19;5029199;28;20132;-89
2022/06/27 10:07:08;;;;;;;23.52;18.30;;;20.70;99.90;;;19.16;100.00;100513.44;5027790;28;20069;-88
2022/06/27 10:09:37;;;;;;;21.60;17.20;;;20.80;99.90;;;19.26;100.00;100510.91;5024749;28;20069;-88
2022/06/27 10:12:31;;;;;;;21.95;18.30;;;20.70;99.90;;;19.34;100.00;100524.31;5027320;28;20076;-88
2022/06/27 10:15:25;;;;;;;22.30;18.42;;;20.80;99.90;;;19.33;100.00;100508.84;5030356;28;20049;-89
2022/06/27 10:17:56;;;;;;;21.00;16.92;;;20.80;99.90;;;19.33;100.00;100495.88;5030112;28;20041;-87
2022/06/27 10:20:38;;;;;;;21.88;16.55;;;20.80;99.90;;;19.41;100.00;100486.38;5029013;28;20124;-88
2022/06/27 10:23:28;;;;;;;20.25;16.98;;;20.80;99.90;;;19.50;100.00;100481.34;5030215;28;20120;-87
2022/06/27 10:25:57;;;;;;;24.38;16.60;;;20.80;99.90;;;19.59;100.00;100484.53;5030328;28;20045;-86
2022/06/27 10:28:26;;;;;;;26.25;18.13;;;20.90;99.90;;;19.70;100.00;100489.16;5029931;28;20144;-87
2022/06/27 10:30:55;;;;;;;22.63;16.95;;;20.90;99.90;;;19.79;100.00;100490.50;5028636;28;20045;-88
2022/06/27 10:33:41;;;;;;;28.55;20.42;;;20.90;99.90;;;19.95;100.00;100493.53;5028967;28;20389;-89
2022/06/27 10:36:13;;;;;;;24.98;20.65;;;20.90;99.90;;;19.96;100.00;100500.75;5030191;28;20095;-92
2022/06/27 10:39:18;;;;;;;22.52;17.58;;;20.90;99.90;;;20.07;100.00;100502.63;5030036;28;20132;-89
2022/06/27 10:41:46;;;;;;;23.27;17.65;;;21.00;99.90;;;20.15;100.00;100496.69;5030655;28;20056;-90
2022/06/27 10:44:32;;;;;;;26.15;19.83;;;21.10;99.90;;;20.18;100.00;100500.88;5030061;28;20112;-92
2022/06/27 10:47:01;;;;;;;28.27;21.75;;;21.10;99.90;;;20.12;100.00;100499.94;5028012;28;20129;-87
2022/06/27 10:49:31;;;;;;;25.55;20.40;;;21.10;99.90;;;20.01;100.00;100511.88;5029541;28;20060;-86
2022/06/27 10:52:24;;;;;;;22.50;18.55;;;21.10;99.90;;;19.83;100.00;100512.94;5029829;28;20056;-86
2022/06/27 10:54:54;;;;;;;26.23;17.95;;;21.10;99.90;;;19.71;100.00;100521.25;5024508;28;20674;-86
2022/06/27 10:57:44;;;;;;;22.75;16.90;;;21.10;99.90;;;19.66;100.00;100540.44;5030288;28;20115;-91
2022/06/27 11:00:36;;;;;;;23.60;17.80;;;21.10;99.90;;;19.62;100.00;100539.25;5030048;28;20073;-92
2022/06/27 11:03:04;;;;;;;22.80;18.05;;;21.20;99.90;;;19.65;100.00;100533.28;5030046;28;20041;-92
2022/06/27 11:05:47;;;;;;;22.75;18.55;;;21.20;99.90;;;19.72;100.00;100533.97;5030643;28;20117;-91
2022/06/27 11:08:14;;;;;;;24.77;19.42;;;21.10;99.90;;;19.79;100.00;100523.63;5029410;28;20056;-90